Ephrata, WA

4:28 PM PDT on October 22, 2014 (GMT -0700)
COM - Winchester | Change Station
CLOSE
Current Station
Personal Weather Station
Location: Ephrata, WA
Elevation: 1344 ft
Nearby Weather Stations

Elev 1344 ft 47.26 °N, 119.65 °W | Updated 0 second ago

Light Rain
Light Rain
52.6 °F
Feels Like 52.6 °F
N
3.7
Wind Variable Wind from SSW
Gusts 5.0 mph

Today
High -- | Low -- °F
--% Chance of Precip.
Yesterday
High -- | Low -- °F
Precip. -- in
7:26 AM 5:57 PM
Waning Crescent, 1% visible
Pressure 29.76 in
Visibility 10.0 miles
Clouds Mostly Cloudy 6500 ft
Overcast 8000 ft
Dew Point 50 °F
Humidity 93%
Rainfall 0.11 in
Snow Depth Not available.
UV 0 out of 12
Pollen .40 out of 12
Air Quality Not available.
Flu Activity Sporadic
METAR KEPH 222253Z AUTO 00000KT 10SM -RA BKN065 OVC080 12/11 A2975 RMK AO2 SLP076 P0003 T01220111

More Conditions Fewer Conditions

Pressure 29.76 in
Visibility 10.0 miles
Clouds Mostly Cloudy 6500 ft
Overcast 8000 ft
Dew Point 50 °F
Humidity 93%
Rainfall 0.11 in
Snow Depth Not available.
UV 0 out of 12
Pollen .40 out of 12
Air Quality Not available.
Flu Activity Sporadic
METAR KEPH 222253Z AUTO 00000KT 10SM -RA BKN065 OVC080 12/11 A2975 RMK AO2 SLP076 P0003 T01220111

More Conditions Fewer Conditions

10-Day Weather Forecast

Almanac

Astronomy

Oct. 22, 2014 Rise Set
Actual Time 7:26 AM PDT 5:57 PM PDT
Civil Twilight 6:55 AM PDT 6:28 PM PDT
Nautical Twilight 6:19 AM PDT 7:04 PM PDT
Astronomical Twilight 5:44 AM PDT 7:39 PM PDT
Moon 6:08 AM PDT 5:30 PM PDT
Length of Visible Light 11h 33m
Length of Day
10h 30m
Tomorrow will be 3m 13s shorter.
Waning Crescent, 1% of the Moon is Illuminated
Today
Waning Crescent
Oct 23
New
Oct 30
First Quarter
Nov 6
Full
Nov 14
Last Quarter

Today's Extremes

State Highs State Lows

Community

WunderPhotos

Upload Photos

1,764,078 photos uploaded!

WunderBlogs® & News

Nearby

Snow Depth

Station Depth Elevation
Trough 0 in 5300 ft
Grouse Camp 0 in 5380 ft
Blewett Pass 0 in 4270 ft
Pope Ridge 0 in 3540 ft
Sasse Ridge 0 in 4200 ft

Earthquake Activity

City Distance Mag. Time & Date
No recent earthquake activity has been reported nearby.
Minimum magnitude displayed is 2.5.

Coastal Water Temperatures

Place Temperature
No Stations Reporting

Nearby Weather Stations